Time,TemperatureF,DewpointF,PressureIn,WindDirection,WindDirectionDegrees,WindSpeedMPH,WindSpeedGustMPH,Humidity,HourlyPrecipIn,Conditions,Clouds,dailyrainin,SoftwareType,DateUTC
2013-10-10 00:04:00,61.8,50.7,30.03,SSE,164,0.0,6.0,67,0.00,,SKC,0.00,VWS V13.01,2013-10-10 05:04:00,
2013-10-10 00:09:00,61.8,50.7,30.03,ESE,112,0.0,1.0,67,0.00,,SKC,0.00,VWS V13.01,2013-10-10 05:09:00,
2013-10-10 00:14:00,61.7,50.6,30.03,SSE,149,0.0,0.0,67,0.00,,SKC,0.00,VWS V13.01,2013-10-10 05:14:00,
2013-10-10 00:19:00,61.6,50.5,30.03,SE,124,0.0,0.0,67,0.00,,SKC,0.00,VWS V13.01,2013-10-10 05:19:00,
2013-10-10 00:24:00,61.5,50.5,30.03,SE,137,0.0,0.0,67,0.00,,SKC,0.00,VWS V13.01,2013-10-10 05:24:00,
2013-10-10 00:29:00,61.3,50.7,30.03,South,172,0.0,9.0,68,0.00,,SKC,0.00,VWS V13.01,2013-10-10 05:29:00,
2013-10-10 00:34:00,61.3,50.7,30.03,SE,135,0.0,0.0,68,0.00,,SKC,0.00,VWS V13.01,2013-10-10 05:34:00,
2013-10-10 00:39:00,61.2,50.6,30.02,SSE,166,0.0,0.0,68,0.00,,SKC,0.00,VWS V13.01,2013-10-10 05:39:00,
2013-10-10 00:44:00,61.1,50.5,30.02,SSW,197,4.0,4.0,68,0.00,,SKC,0.00,VWS V13.01,2013-10-10 05:44:00,
2013-10-10 00:49:00,61.0,50.4,30.02,SE,129,0.0,7.0,68,0.00,,SKC,0.00,VWS V13.01,2013-10-10 05:49:00,
2013-10-10 00:54:00,60.9,50.3,30.02,SE,137,0.0,0.0,68,0.00,,SKC,0.00,VWS V13.01,2013-10-10 05:54:00,
2013-10-10 00:59:00,60.8,50.2,30.02,South,190,0.0,1.0,68,0.00,,SKC,0.00,VWS V13.01,2013-10-10 05:59:00,
2013-10-10 01:04:00,60.7,50.1,30.02,SSW,195,0.0,6.0,68,0.00,,SKC,0.00,VWS V13.01,2013-10-10 06:04:00,
2013-10-10 01:09:00,60.6,50.0,30.02,South,178,0.0,0.0,68,0.00,,SKC,0.00,VWS V13.01,2013-10-10 06:09:00,
2013-10-10 01:14:00,60.6,50.0,30.02,SSE,160,0.0,4.0,68,0.00,,SKC,0.00,VWS V13.01,2013-10-10 06:14:00,
2013-10-10 01:19:00,60.5,50.3,30.02,South,177,0.0,0.0,69,0.00,,SKC,0.00,VWS V13.01,2013-10-10 06:19:00,
2013-10-10 01:24:00,60.5,49.9,30.02,ENE,72,1.0,5.0,68,0.00,,SKC,0.00,VWS V13.01,2013-10-10 06:24:00,
2013-10-10 01:29:00,60.5,49.9,30.02,SSE,149,4.0,5.0,68,0.00,,SKC,0.00,VWS V13.01,2013-10-10 06:29:00,
2013-10-10 01:34:00,60.5,49.9,30.02,SSE,163,0.0,0.0,68,0.00,,SKC,0.00,VWS V13.01,2013-10-10 06:34:00,
2013-10-10 01:39:00,60.4,50.2,30.02,ESE,117,0.0,0.0,69,0.00,,SKC,0.00,VWS V13.01,2013-10-10 06:39:00,
2013-10-10 01:44:00,60.3,49.7,30.03,SE,129,0.0,0.0,68,0.00,,SKC,0.00,VWS V13.01,2013-10-10 06:44:00,
2013-10-10 01:49:00,60.3,50.1,30.03,WSW,245,0.0,0.0,69,0.00,,SKC,0.00,VWS V13.01,2013-10-10 06:49:00,
2013-10-10 01:54:00,60.2,50.0,30.02,South,189,0.0,6.0,69,0.00,,SKC,0.00,VWS V13.01,2013-10-10 06:54:00,
2013-10-10 01:59:00,60.1,49.9,30.02,SE,138,0.0,5.0,69,0.00,,SKC,0.00,VWS V13.01,2013-10-10 06:59:00,
2013-10-10 02:04:00,60.1,49.9,30.02,SSE,152,2.0,12.0,69,0.00,,SKC,0.00,VWS V13.01,2013-10-10 07:04:00,
2013-10-10 02:09:00,60.0,49.8,30.02,ESE,120,0.0,0.0,69,0.00,,SKC,0.00,VWS V13.01,2013-10-10 07:09:00,
2013-10-10 02:14:00,60.0,49.8,30.02,South,172,0.0,0.0,69,0.00,,SKC,0.00,VWS V13.01,2013-10-10 07:14:00,
2013-10-10 02:19:00,59.9,49.7,30.03,SE,139,0.0,0.0,69,0.00,,SKC,0.00,VWS V13.01,2013-10-10 07:19:00,
2013-10-10 02:24:00,59.8,49.6,30.02,SSE,159,6.0,8.0,69,0.00,,SKC,0.00,VWS V13.01,2013-10-10 07:24:00,
2013-10-10 02:29:00,59.8,49.6,30.02,ESE,116,0.0,0.0,69,0.00,,SKC,0.00,VWS V13.01,2013-10-10 07:29:00,
2013-10-10 02:34:00,59.6,49.8,30.02,South,186,0.0,0.0,70,0.00,,SKC,0.00,VWS V13.01,2013-10-10 07:34:00,
2013-10-10 02:39:00,59.6,49.8,30.02,East,90,0.0,0.0,70,0.00,,SKC,0.00,VWS V13.01,2013-10-10 07:39:00,
2013-10-10 02:44:00,59.4,49.6,30.02,ESE,114,0.0,0.0,70,0.00,,SKC,0.00,VWS V13.01,2013-10-10 07:44:00,
2013-10-10 02:49:00,59.3,49.5,30.03,SSW,192,0.0,0.0,70,0.00,,SKC,0.00,VWS V13.01,2013-10-10 07:49:00,
2013-10-10 02:54:00,59.2,49.4,30.02,South,189,0.0,0.0,70,0.00,,SKC,0.00,VWS V13.01,2013-10-10 07:54:00,
2013-10-10 02:59:00,59.0,49.6,30.02,SSW,193,0.0,2.0,71,0.00,,SKC,0.00,VWS V13.01,2013-10-10 07:59:00,
2013-10-10 03:04:00,58.9,49.5,30.02,SSW,193,0.0,0.0,71,0.00,,SKC,0.00,VWS V13.01,2013-10-10 08:04:00,
2013-10-10 03:09:00,58.7,49.3,30.02,South,191,0.0,0.0,71,0.00,,SKC,0.00,VWS V13.01,2013-10-10 08:09:00,
2013-10-10 03:14:00,58.5,49.5,30.02,ESE,110,0.0,5.0,72,0.00,,SKC,0.00,VWS V13.01,2013-10-10 08:14:00,
2013-10-10 03:19:00,58.4,49.4,30.02,SSE,166,0.0,0.0,72,0.00,,SKC,0.00,VWS V13.01,2013-10-10 08:19:00,
2013-10-10 03:24:00,58.2,49.6,30.02,SSE,160,0.0,0.0,73,0.00,,SKC,0.00,VWS V13.01,2013-10-10 08:24:00,
2013-10-10 03:29:00,58.0,49.4,30.02,SSE,162,0.0,0.0,73,0.00,,SKC,0.00,VWS V13.01,2013-10-10 08:29:00,
2013-10-10 03:34:00,57.9,49.3,30.02,SSE,159,0.0,0.0,73,0.00,,SKC,0.00,VWS V13.01,2013-10-10 08:34:00,
2013-10-10 03:39:00,57.8,49.2,30.02,SSE,160,0.0,0.0,73,0.00,,SKC,0.00,VWS V13.01,2013-10-10 08:39:00,
2013-10-10 03:44:00,57.7,49.5,30.02,SSE,151,0.0,0.0,74,0.00,,SKC,0.00,VWS V13.01,2013-10-10 08:44:00,
2013-10-10 03:49:00,57.6,49.4,30.02,SSW,200,0.0,0.0,74,0.00,,SKC,0.00,VWS V13.01,2013-10-10 08:49:00,
2013-10-10 03:54:00,57.6,49.4,30.02,SE,137,0.0,0.0,74,0.00,,SKC,0.00,VWS V13.01,2013-10-10 08:54:00,
2013-10-10 03:59:00,57.6,49.4,30.02,South,174,2.0,4.0,74,0.00,,SKC,0.00,VWS V13.01,2013-10-10 08:59:00,
2013-10-10 04:04:00,57.7,49.8,30.02,South,183,0.0,0.0,75,0.00,,SKC,0.00,VWS V13.01,2013-10-10 09:04:00,
2013-10-10 04:09:00,57.6,49.8,30.03,South,183,0.0,0.0,75,0.00,,SKC,0.00,VWS V13.01,2013-10-10 09:09:00,
2013-10-10 04:14:00,57.6,49.8,30.03,South,172,0.0,0.0,75,0.00,,SKC,0.00,VWS V13.01,2013-10-10 09:14:00,
2013-10-10 04:19:00,57.5,49.7,30.02,East,94,0.0,0.0,75,0.00,,SKC,0.00,VWS V13.01,2013-10-10 09:19:00,
2013-10-10 04:24:00,57.4,49.5,30.02,SE,126,0.0,0.0,75,0.00,,SKC,0.00,VWS V13.01,2013-10-10 09:24:00,
2013-10-10 04:29:00,57.4,49.5,30.02,South,178,0.0,0.0,75,0.00,,SKC,0.00,VWS V13.01,2013-10-10 09:29:00,
2013-10-10 04:34:00,57.3,49.5,30.02,South,178,0.0,0.0,75,0.00,,SKC,0.00,VWS V13.01,2013-10-10 09:34:00,
2013-10-10 04:39:00,57.2,49.4,30.02,South,178,0.0,0.0,75,0.00,,SKC,0.00,VWS V13.01,2013-10-10 09:39:00,
2013-10-10 04:44:00,57.1,49.6,30.02,South,178,0.0,0.0,76,0.00,,SKC,0.00,VWS V13.01,2013-10-10 09:44:00,
2013-10-10 04:49:00,56.9,49.4,30.02,ESE,109,0.0,0.0,76,0.00,,SKC,0.00,VWS V13.01,2013-10-10 09:49:00,
2013-10-10 04:54:00,56.8,49.7,30.02,ESE,122,0.0,0.0,77,0.00,,SKC,0.00,VWS V13.01,2013-10-10 09:54:00,
2013-10-10 04:59:00,56.7,49.6,30.02,SSW,201,0.0,2.0,77,0.00,,SKC,0.00,VWS V13.01,2013-10-10 09:59:00,
2013-10-10 05:04:00,56.6,49.5,30.02,ESE,117,0.0,0.0,77,0.00,,SKC,0.00,VWS V13.01,2013-10-10 10:04:00,
2013-10-10 05:09:00,56.6,49.5,30.02,SE,129,0.0,0.0,77,0.00,,SKC,0.00,VWS V13.01,2013-10-10 10:09:00,
2013-10-10 05:14:00,56.5,49.7,30.02,SE,131,0.0,0.0,78,0.00,,SKC,0.00,VWS V13.01,2013-10-10 10:14:00,
2013-10-10 05:19:00,56.5,49.7,30.02,SE,131,0.0,0.0,78,0.00,,SKC,0.00,VWS V13.01,2013-10-10 10:19:00,
2013-10-10 05:24:00,56.4,49.6,30.02,ENE,69,0.0,1.0,78,0.00,,SKC,0.00,VWS V13.01,2013-10-10 10:24:00,
2013-10-10 05:29:00,56.4,49.6,30.02,ENE,77,0.0,3.0,78,0.00,,SKC,0.00,VWS V13.01,2013-10-10 10:29:00,
2013-10-10 05:34:00,56.4,49.6,30.02,SSW,211,0.0,0.0,78,0.00,,SKC,0.00,VWS V13.01,2013-10-10 10:34:00,
2013-10-10 05:39:00,56.4,49.6,30.02,SSW,203,0.0,0.0,78,0.00,,SKC,0.00,VWS V13.01,2013-10-10 10:39:00,
2013-10-10 05:44:00,56.4,49.6,30.02,East,101,0.0,0.0,78,0.00,,SKC,0.00,VWS V13.01,2013-10-10 10:44:00,
2013-10-10 05:49:00,56.4,49.6,30.02,SE,134,0.0,0.0,78,0.00,,SKC,0.00,VWS V13.01,2013-10-10 10:49:00,
2013-10-10 05:54:00,56.3,49.9,30.02,South,183,1.0,3.0,79,0.00,,SKC,0.00,VWS V13.01,2013-10-10 10:54:00,
2013-10-10 05:59:00,56.3,49.9,30.02,ESE,102,0.0,0.0,79,0.00,,SKC,0.00,VWS V13.01,2013-10-10 10:59:00,
2013-10-10 06:04:00,56.3,49.9,30.02,ESE,102,0.0,0.0,79,0.00,,SKC,0.00,VWS V13.01,2013-10-10 11:04:00,
2013-10-10 06:09:00,56.2,49.8,30.01,ESE,102,0.0,0.0,79,0.00,,SKC,0.00,VWS V13.01,2013-10-10 11:09:00,
2013-10-10 06:14:00,56.2,49.8,30.01,ESE,102,0.0,0.0,79,0.00,,SKC,0.00,VWS V13.01,2013-10-10 11:14:00,
2013-10-10 06:19:00,56.1,49.7,30.01,ESE,103,0.0,0.0,79,0.00,,SKC,0.00,VWS V13.01,2013-10-10 11:19:00,
2013-10-10 06:24:00,56.0,49.6,30.01,South,172,0.0,5.0,79,0.00,,SKC,0.00,VWS V13.01,2013-10-10 11:24:00,
2013-10-10 06:29:00,56.0,49.6,30.02,SSE,162,0.0,0.0,79,0.00,,SKC,0.00,VWS V13.01,2013-10-10 11:29:00,
2013-10-10 06:34:00,56.0,49.6,30.02,South,183,0.0,0.0,79,0.00,,SKC,0.00,VWS V13.01,2013-10-10 11:34:00,
2013-10-10 06:39:00,55.9,49.5,30.02,South,183,0.0,0.0,79,0.00,,SKC,0.00,VWS V13.01,2013-10-10 11:39:00,
2013-10-10 06:44:00,55.9,49.5,30.02,South,183,0.0,0.0,79,0.00,,SKC,0.00,VWS V13.01,2013-10-10 11:44:00,
2013-10-10 06:49:00,55.8,49.4,30.02,South,183,0.0,0.0,79,0.00,,SKC,0.00,VWS V13.01,2013-10-10 11:49:00,
2013-10-10 06:54:00,55.7,49.3,30.02,South,183,0.0,0.0,79,0.00,,SKC,0.00,VWS V13.01,2013-10-10 11:54:00,
2013-10-10 06:59:00,55.7,49.3,30.02,SE,124,0.0,0.0,79,0.00,,SKC,0.00,VWS V13.01,2013-10-10 11:59:00,
2013-10-10 07:04:00,55.7,49.6,30.02,SE,135,5.0,7.0,80,0.00,,SKC,0.00,VWS V13.01,2013-10-10 12:04:00,
2013-10-10 07:09:00,55.7,49.6,30.02,South,177,0.0,0.0,80,0.00,,SKC,0.00,VWS V13.01,2013-10-10 12:09:00,
2013-10-10 07:14:00,55.6,49.5,30.02,SSE,160,0.0,0.0,80,0.00,,SKC,0.00,VWS V13.01,2013-10-10 12:14:00,
2013-10-10 07:19:00,55.6,49.5,30.02,SSW,195,0.0,4.0,80,0.00,,SKC,0.00,VWS V13.01,2013-10-10 12:19:00,
2013-10-10 07:24:00,55.5,49.4,30.02,SSW,197,0.0,0.0,80,0.00,,SKC,0.00,VWS V13.01,2013-10-10 12:24:00,
2013-10-10 07:29:00,55.5,49.4,30.02,SE,135,0.0,1.0,80,0.00,,SKC,0.00,VWS V13.01,2013-10-10 12:29:00,
2013-10-10 07:34:00,55.5,49.4,30.02,South,174,0.0,0.0,80,0.00,,SKC,0.00,VWS V13.01,2013-10-10 12:34:00,
2013-10-10 07:39:00,55.4,49.3,30.02,SSE,153,0.0,0.0,80,0.00,,SKC,0.00,VWS V13.01,2013-10-10 12:39:00,
2013-10-10 07:44:00,55.5,49.4,30.01,SSE,168,0.0,0.0,80,0.00,,SKC,0.00,VWS V13.01,2013-10-10 12:44:00,
2013-10-10 07:49:00,55.5,49.4,30.02,SE,137,1.0,5.0,80,0.00,,SKC,0.00,VWS V13.01,2013-10-10 12:49:00,
2013-10-10 07:54:00,55.5,49.4,30.02,SE,129,0.0,0.0,80,0.00,,SKC,0.00,VWS V13.01,2013-10-10 12:54:00,
2013-10-10 07:59:00,55.7,50.0,30.02,ESE,117,0.0,0.0,81,0.00,,SKC,0.00,VWS V13.01,2013-10-10 12:59:00,
2013-10-10 08:04:00,55.9,50.2,30.02,South,188,0.0,0.0,81,0.00,,SKC,0.00,VWS V13.01,2013-10-10 13:04:00,
2013-10-10 08:09:00,56.2,50.1,30.02,ESE,121,0.0,7.0,80,0.00,,SKC,0.00,VWS V13.01,2013-10-10 13:09:00,
2013-10-10 08:14:00,56.5,50.4,30.02,SE,124,0.0,0.0,80,0.00,,SKC,0.00,VWS V13.01,2013-10-10 13:14:00,
2013-10-10 08:19:00,56.7,50.3,30.02,SSW,197,0.0,0.0,79,0.00,,SKC,0.00,VWS V13.01,2013-10-10 13:19:00,
2013-10-10 08:24:00,56.9,50.5,30.02,ESE,112,0.0,0.0,79,0.00,,SKC,0.00,VWS V13.01,2013-10-10 13:24:00,
2013-10-10 08:29:00,57.2,50.8,30.02,ESE,116,0.0,0.0,79,0.00,,SKC,0.00,VWS V13.01,2013-10-10 13:29:00,
2013-10-10 08:34:00,57.6,50.8,30.02,South,176,0.0,0.0,78,0.00,,SKC,0.00,VWS V13.01,2013-10-10 13:34:00,
2013-10-10 08:39:00,57.8,51.0,30.02,SSE,152,0.0,0.0,78,0.00,,SKC,0.00,VWS V13.01,2013-10-10 13:39:00,
2013-10-10 08:44:00,58.3,51.1,30.02,SSW,195,0.0,6.0,77,0.00,,SKC,0.00,VWS V13.01,2013-10-10 13:44:00,
2013-10-10 08:49:00,58.8,51.3,30.02,East,97,0.0,0.0,76,0.00,,SKC,0.00,VWS V13.01,2013-10-10 13:49:00,
2013-10-10 08:54:00,59.2,51.3,30.02,South,170,0.0,0.0,75,0.00,,SKC,0.00,VWS V13.01,2013-10-10 13:54:00,
2013-10-10 08:59:00,59.5,51.6,30.02,SE,124,0.0,0.0,75,0.00,,SKC,0.00,VWS V13.01,2013-10-10 13:59:00,
2013-10-10 09:04:00,60.0,52.1,30.02,SE,142,0.0,1.0,75,0.00,,SKC,0.00,VWS V13.01,2013-10-10 14:04:00,
2013-10-10 09:09:00,60.4,52.1,30.02,SE,135,0.0,3.0,74,0.00,,SKC,0.00,VWS V13.01,2013-10-10 14:09:00,
2013-10-10 09:14:00,61.0,52.7,30.02,ESE,116,6.0,8.0,74,0.00,,SKC,0.00,VWS V13.01,2013-10-10 14:14:00,
2013-10-10 09:19:00,61.4,52.7,30.01,SSE,162,0.0,0.0,73,0.00,,SKC,0.00,VWS V13.01,2013-10-10 14:19:00,
2013-10-10 09:24:00,61.7,52.6,30.01,SSE,161,0.0,0.0,72,0.00,,SKC,0.00,VWS V13.01,2013-10-10 14:24:00,
2013-10-10 09:29:00,62.1,53.0,30.02,East,101,11.0,11.0,72,0.00,,SKC,0.00,VWS V13.01,2013-10-10 14:29:00,
2013-10-10 09:34:00,62.5,53.0,30.02,SE,139,0.0,0.0,71,0.00,,SKC,0.00,VWS V13.01,2013-10-10 14:34:00,
2013-10-10 09:39:00,63.0,53.5,30.01,SE,129,0.0,0.0,71,0.00,,SKC,0.00,VWS V13.01,2013-10-10 14:39:00,
2013-10-10 09:44:00,63.4,53.5,30.01,East,83,0.0,0.0,70,0.00,,SKC,0.00,VWS V13.01,2013-10-10 14:44:00,
2013-10-10 09:49:00,63.9,53.5,30.01,ENE,71,0.0,4.0,69,0.00,,SKC,0.00,VWS V13.01,2013-10-10 14:49:00,
2013-10-10 09:54:00,64.5,54.1,30.01,SE,133,9.0,9.0,69,0.00,,SKC,0.00,VWS V13.01,2013-10-10 14:54:00,
2013-10-10 09:59:00,65.0,54.2,30.01,SSE,149,0.0,15.0,68,0.00,,SKC,0.00,VWS V13.01,2013-10-10 14:59:00,
2013-10-10 10:04:00,65.2,54.0,30.01,South,190,0.0,3.0,67,0.00,,SKC,0.00,VWS V13.01,2013-10-10 15:04:00,
2013-10-10 10:09:00,65.7,54.5,30.01,SE,138,2.0,5.0,67,0.00,,SKC,0.00,VWS V13.01,2013-10-10 15:09:00,
2013-10-10 10:14:00,66.3,54.6,30.01,SE,143,4.0,7.0,66,0.00,,SKC,0.00,VWS V13.01,2013-10-10 15:14:00,
2013-10-10 10:19:00,66.7,54.6,30.01,East,89,0.0,5.0,65,0.00,,SKC,0.00,VWS V13.01,2013-10-10 15:19:00,
2013-10-10 10:24:00,66.8,54.7,30.01,South,188,0.0,0.0,65,0.00,,SKC,0.00,VWS V13.01,2013-10-10 15:24:00,
2013-10-10 10:29:00,67.0,54.4,30.01,ESE,123,0.0,7.0,64,0.00,,SKC,0.00,VWS V13.01,2013-10-10 15:29:00,
2013-10-10 10:34:00,67.3,54.7,30.01,South,179,0.0,8.0,64,0.00,,SKC,0.00,VWS V13.01,2013-10-10 15:34:00,
2013-10-10 10:39:00,67.4,54.8,30.01,SSE,152,0.0,8.0,64,0.00,,SKC,0.00,VWS V13.01,2013-10-10 15:39:00,
2013-10-10 10:44:00,68.1,55.5,30.01,ESE,120,0.0,2.0,64,0.00,,SKC,0.00,VWS V13.01,2013-10-10 15:44:00,
2013-10-10 10:49:00,68.9,55.8,30.00,SE,134,0.0,0.0,63,0.00,,SKC,0.00,VWS V13.01,2013-10-10 15:49:00,
2013-10-10 10:54:00,70.0,56.0,30.00,ESE,119,0.0,5.0,61,0.00,,SKC,0.00,VWS V13.01,2013-10-10 15:54:00,
2013-10-10 10:59:00,70.2,55.7,30.00,SSW,206,0.0,1.0,60,0.00,,SKC,0.00,VWS V13.01,2013-10-10 15:59:00,
2013-10-10 11:04:00,71.0,56.4,29.99,ESE,116,0.0,0.0,60,0.00,,SKC,0.00,VWS V13.01,2013-10-10 16:04:00,
2013-10-10 11:09:00,71.5,56.4,29.99,SE,143,0.0,0.0,59,0.00,,SKC,0.00,VWS V13.01,2013-10-10 16:09:00,
2013-10-10 11:14:00,72.1,57.0,29.99,East,95,0.0,0.0,59,0.00,,SKC,0.00,VWS V13.01,2013-10-10 16:14:00,
2013-10-10 11:19:00,72.9,56.8,29.99,SE,144,9.0,9.0,57,0.00,,SKC,0.00,VWS V13.01,2013-10-10 16:19:00,
2013-10-10 11:24:00,73.5,57.3,29.99,South,183,4.0,7.0,57,0.00,,SKC,0.00,VWS V13.01,2013-10-10 16:24:00,
2013-10-10 11:29:00,73.7,56.5,29.99,SSW,195,0.0,7.0,55,0.00,,SKC,0.00,VWS V13.01,2013-10-10 16:29:00,
2013-10-10 11:34:00,74.1,56.9,29.98,SE,145,5.0,9.0,55,0.00,,SKC,0.00,VWS V13.01,2013-10-10 16:34:00,
2013-10-10 11:39:00,74.3,56.6,29.98,SE,137,0.0,8.0,54,0.00,,SKC,0.00,VWS V13.01,2013-10-10 16:39:00,
2013-10-10 11:44:00,74.7,57.0,29.98,ENE,67,0.0,6.0,54,0.00,,SKC,0.00,VWS V13.01,2013-10-10 16:44:00,
2013-10-10 11:49:00,75.8,58.0,29.98,SSE,153,8.0,8.0,54,0.00,,SKC,0.00,VWS V13.01,2013-10-10 16:49:00,
2013-10-10 11:54:00,76.0,57.1,29.98,NE,48,2.0,7.0,52,0.00,,SKC,0.00,VWS V13.01,2013-10-10 16:54:00,
2013-10-10 11:59:00,76.2,57.8,29.97,South,191,7.0,9.0,53,0.00,,SKC,0.00,VWS V13.01,2013-10-10 16:59:00,
2013-10-10 12:04:00,75.7,57.4,29.98,SSE,155,6.0,8.0,53,0.00,,SKC,0.00,VWS V13.01,2013-10-10 17:04:00,
2013-10-10 12:09:00,76.2,57.3,29.97,ESE,121,0.0,15.0,52,0.00,,SKC,0.00,VWS V13.01,2013-10-10 17:09:00,
2013-10-10 12:14:00,76.7,57.8,29.97,SSE,155,9.0,13.0,52,0.00,,SKC,0.00,VWS V13.01,2013-10-10 17:14:00,
2013-10-10 12:19:00,77.4,58.4,29.97,SSE,148,0.0,12.0,52,0.00,,SKC,0.00,VWS V13.01,2013-10-10 17:19:00,
2013-10-10 12:24:00,77.6,58.1,29.96,SE,141,7.0,11.0,51,0.00,,SKC,0.00,VWS V13.01,2013-10-10 17:24:00,
2013-10-10 12:29:00,77.6,57.5,29.96,South,190,5.0,15.0,50,0.00,,SKC,0.00,VWS V13.01,2013-10-10 17:29:00,
2013-10-10 12:34:00,77.6,58.6,29.96,South,186,6.0,17.0,52,0.00,,SKC,0.00,VWS V13.01,2013-10-10 17:34:00,
2013-10-10 12:39:00,77.8,57.7,29.96,ESE,112,4.0,12.0,50,0.00,,SKC,0.00,VWS V13.01,2013-10-10 17:39:00,
2013-10-10 12:44:00,77.9,57.8,29.96,SE,139,4.0,7.0,50,0.00,,SKC,0.00,VWS V13.01,2013-10-10 17:44:00,
2013-10-10 12:49:00,78.3,57.6,29.96,SE,133,12.0,14.0,49,0.00,,SKC,0.00,VWS V13.01,2013-10-10 17:49:00,
2013-10-10 12:54:00,78.2,57.5,29.96,South,189,9.0,15.0,49,0.00,,SKC,0.00,VWS V13.01,2013-10-10 17:54:00,
2013-10-10 12:59:00,79.1,58.3,29.96,South,190,9.0,16.0,49,0.00,,SKC,0.00,VWS V13.01,2013-10-10 17:59:00,
2013-10-10 13:04:00,79.2,58.4,29.96,SE,131,0.0,11.0,49,0.00,,SKC,0.00,VWS V13.01,2013-10-10 18:04:00,
2013-10-10 13:09:00,80.1,58.1,29.95,SSE,149,2.0,6.0,47,0.00,,SKC,0.00,VWS V13.01,2013-10-10 18:09:00,
2013-10-10 13:14:00,80.1,58.7,29.95,SE,126,6.0,9.0,48,0.00,,SKC,0.00,VWS V13.01,2013-10-10 18:14:00,
2013-10-10 13:19:00,80.1,58.1,29.95,ENE,70,1.0,16.0,47,0.00,,SKC,0.00,VWS V13.01,2013-10-10 18:19:00,
2013-10-10 13:24:00,80.2,57.0,29.95,SE,140,0.0,17.0,45,0.00,,SKC,0.00,VWS V13.01,2013-10-10 18:24:00,
2013-10-10 13:29:00,79.7,58.3,29.94,SSE,168,13.0,13.0,48,0.00,,SKC,0.00,VWS V13.01,2013-10-10 18:29:00,
2013-10-10 13:34:00,80.2,58.8,29.94,SE,136,8.0,15.0,48,0.00,,SKC,0.00,VWS V13.01,2013-10-10 18:34:00,
2013-10-10 13:39:00,80.9,58.2,29.93,SE,141,0.0,13.0,46,0.00,,SKC,0.00,VWS V13.01,2013-10-10 18:39:00,
2013-10-10 13:44:00,80.8,58.7,29.93,NE,35,1.0,14.0,47,0.00,,SKC,0.00,VWS V13.01,2013-10-10 18:44:00,
2013-10-10 13:49:00,80.7,58.0,29.93,SE,137,11.0,11.0,46,0.00,,SKC,0.00,VWS V13.01,2013-10-10 18:49:00,
2013-10-10 13:54:00,80.9,58.2,29.92,ENE,68,0.0,10.0,46,0.00,,SKC,0.00,VWS V13.01,2013-10-10 18:54:00,
2013-10-10 13:59:00,81.2,58.5,29.91,SE,127,7.0,12.0,46,0.00,,SKC,0.00,VWS V13.01,2013-10-10 18:59:00,
2013-10-10 14:04:00,81.5,58.1,29.91,SSE,160,2.0,12.0,45,0.00,,SKC,0.00,VWS V13.01,2013-10-10 19:04:00,
2013-10-10 14:09:00,81.6,58.8,29.91,East,101,0.0,7.0,46,0.00,,SKC,0.00,VWS V13.01,2013-10-10 19:09:00,
2013-10-10 14:14:00,82.1,58.0,29.91,SE,130,8.0,19.0,44,0.00,,SKC,0.00,VWS V13.01,2013-10-10 19:14:00,
2013-10-10 14:19:00,81.3,57.3,29.91,SE,132,5.0,19.0,44,0.00,,SKC,0.00,VWS V13.01,2013-10-10 19:19:00,
2013-10-10 14:24:00,80.5,57.2,29.91,SSW,199,2.0,18.0,45,0.00,,SKC,0.00,VWS V13.01,2013-10-10 19:24:00,
2013-10-10 14:29:00,80.4,57.8,29.91,SSE,158,9.0,16.0,46,0.00,,SKC,0.00,VWS V13.01,2013-10-10 19:29:00,
2013-10-10 14:35:00,80.6,57.9,29.90,SE,145,2.0,11.0,46,0.00,,SKC,0.00,VWS V13.01,2013-10-10 19:35:00,
2013-10-10 14:40:00,81.5,58.8,29.90,ESE,110,0.0,9.0,46,0.00,,SKC,0.00,VWS V13.01,2013-10-10 19:40:00,
2013-10-10 14:45:00,81.7,58.3,29.90,SSW,199,2.0,9.0,45,0.00,,SKC,0.00,VWS V13.01,2013-10-10 19:45:00,
2013-10-10 14:50:00,81.8,59.0,29.90,East,99,5.0,16.0,46,0.00,,SKC,0.00,VWS V13.01,2013-10-10 19:50:00,
2013-10-10 14:55:00,81.6,58.2,29.90,SE,131,0.0,8.0,45,0.00,,SKC,0.00,VWS V13.01,2013-10-10 19:55:00,
2013-10-10 15:00:00,81.5,58.1,29.89,East,93,8.0,15.0,45,0.00,,SKC,0.00,VWS V13.01,2013-10-10 20:00:00,
2013-10-10 15:05:00,81.1,58.4,29.90,SE,140,0.0,9.0,46,0.00,,SKC,0.00,VWS V13.01,2013-10-10 20:05:00,
2013-10-10 15:10:00,81.8,58.4,29.89,SSW,211,2.0,7.0,45,0.00,,SKC,0.00,VWS V13.01,2013-10-10 20:10:00,
2013-10-10 15:15:00,81.5,57.5,29.89,SSW,193,0.0,7.0,44,0.00,,SKC,0.00,VWS V13.01,2013-10-10 20:15:00,
2013-10-10 15:20:00,81.3,57.3,29.89,SW,214,0.0,8.0,44,0.00,,SKC,0.00,VWS V13.01,2013-10-10 20:20:00,
2013-10-10 15:25:00,81.2,57.9,29.89,SE,146,13.0,15.0,45,0.00,,SKC,0.00,VWS V13.01,2013-10-10 20:25:00,
2013-10-10 15:30:00,81.0,57.1,29.89,SW,229,1.0,19.0,44,0.00,,SKC,0.00,VWS V13.01,2013-10-10 20:30:00,
2013-10-10 15:36:00,81.0,57.7,29.89,East,87,0.0,9.0,45,0.00,,SKC,0.00,VWS V13.01,2013-10-10 20:36:00,
2013-10-10 15:38:00,81.0,57.7,29.89,ESE,115,2.0,17.0,45,0.00,,SKC,0.00,VWS V13.01,2013-10-10 20:38:00,
2013-10-10 15:43:00,80.8,57.5,29.89,ESE,122,0.0,7.0,45,0.00,,SKC,0.00,VWS V13.01,2013-10-10 20:43:00,
2013-10-10 15:48:00,80.9,57.6,29.89,SE,137,9.0,11.0,45,0.00,,SKC,0.00,VWS V13.01,2013-10-10 20:48:00,
2013-10-10 15:53:00,81.6,57.6,29.89,South,169,4.0,13.0,44,0.00,,SKC,0.00,VWS V13.01,2013-10-10 20:53:00,
2013-10-10 15:58:00,82.1,58.0,29.89,ENE,74,2.0,17.0,44,0.00,,SKC,0.00,VWS V13.01,2013-10-10 20:58:00,
2013-10-10 16:03:00,82.2,57.5,29.89,SSW,199,4.0,20.0,43,0.00,,SKC,0.00,VWS V13.01,2013-10-10 21:03:00,
2013-10-10 16:08:00,82.0,58.0,29.88,West,274,4.0,13.0,44,0.00,,SKC,0.00,VWS V13.01,2013-10-10 21:08:00,
2013-10-10 16:13:00,81.7,57.0,29.88,ESE,122,4.0,18.0,43,0.00,,SKC,0.00,VWS V13.01,2013-10-10 21:13:00,
2013-10-10 16:18:00,81.7,57.0,29.88,SSE,147,0.0,19.0,43,0.00,,SKC,0.00,VWS V13.01,2013-10-10 21:18:00,
2013-10-10 16:23:00,81.7,57.7,29.88,SSE,162,0.0,5.0,44,0.00,,SKC,0.00,VWS V13.01,2013-10-10 21:23:00,
2013-10-10 16:28:00,82.1,58.0,29.87,ENE,66,1.0,16.0,44,0.00,,SKC,0.00,VWS V13.01,2013-10-10 21:28:00,
2013-10-10 16:33:00,82.3,57.6,29.87,SE,138,6.0,13.0,43,0.00,,SKC,0.00,VWS V13.01,2013-10-10 21:33:00,
2013-10-10 16:38:00,81.8,57.8,29.88,SSE,164,1.0,8.0,44,0.00,,SKC,0.00,VWS V13.01,2013-10-10 21:38:00,
2013-10-10 16:43:00,81.8,57.8,29.87,East,101,0.0,11.0,44,0.00,,SKC,0.00,VWS V13.01,2013-10-10 21:43:00,
2013-10-10 16:48:00,81.8,57.8,29.87,ESE,108,0.0,12.0,44,0.00,,SKC,0.00,VWS V13.01,2013-10-10 21:48:00,
2013-10-10 16:53:00,81.7,57.0,29.87,East,86,7.0,13.0,43,0.00,,SKC,0.00,VWS V13.01,2013-10-10 21:53:00,
2013-10-10 16:58:00,81.7,57.7,29.88,ESE,120,0.0,4.0,44,0.00,,SKC,0.00,VWS V13.01,2013-10-10 21:58:00,
2013-10-10 17:03:00,81.5,57.5,29.87,SSW,192,1.0,7.0,44,0.00,,SKC,0.00,VWS V13.01,2013-10-10 22:03:00,
2013-10-10 17:08:00,81.1,57.2,29.87,SE,146,0.0,16.0,44,0.00,,SKC,0.00,VWS V13.01,2013-10-10 22:08:00,
2013-10-10 17:13:00,80.6,56.7,29.87,South,179,5.0,18.0,44,0.00,,SKC,0.00,VWS V13.01,2013-10-10 22:13:00,
2013-10-10 17:18:00,80.3,57.0,29.87,ESE,117,0.0,9.0,45,0.00,,SKC,0.00,VWS V13.01,2013-10-10 22:18:00,
2013-10-10 17:23:00,80.1,56.2,29.87,South,186,5.0,14.0,44,0.00,,SKC,0.00,VWS V13.01,2013-10-10 22:23:00,
2013-10-10 17:28:00,80.2,57.0,29.87,SSE,153,7.0,7.0,45,0.00,,SKC,0.00,VWS V13.01,2013-10-10 22:28:00,
2013-10-10 17:33:00,80.2,57.0,29.87,SSE,166,2.0,8.0,45,0.00,,SKC,0.00,VWS V13.01,2013-10-10 22:33:00,
2013-10-10 17:38:00,79.8,56.6,29.87,SE,130,2.0,10.0,45,0.00,,SKC,0.00,VWS V13.01,2013-10-10 22:38:00,
2013-10-10 17:43:00,79.6,57.0,29.87,SSE,152,2.0,9.0,46,0.00,,SKC,0.00,VWS V13.01,2013-10-10 22:43:00,
2013-10-10 17:48:00,79.6,57.6,29.87,East,96,6.0,6.0,47,0.00,,SKC,0.00,VWS V13.01,2013-10-10 22:48:00,
2013-10-10 17:53:00,79.5,57.5,29.87,SE,136,0.0,2.0,47,0.00,,SKC,0.00,VWS V13.01,2013-10-10 22:53:00,
2013-10-10 17:58:00,79.5,56.9,29.87,SE,137,4.0,18.0,46,0.00,,SKC,0.00,VWS V13.01,2013-10-10 22:58:00,
2013-10-10 18:03:00,79.1,56.6,29.87,ESE,116,0.0,12.0,46,0.00,,SKC,0.00,VWS V13.01,2013-10-10 23:03:00,
2013-10-10 18:08:00,78.8,56.3,29.87,SE,124,0.0,6.0,46,0.00,,SKC,0.00,VWS V13.01,2013-10-10 23:08:00,
2013-10-10 18:13:00,78.5,56.6,29.86,South,180,2.0,5.0,47,0.00,,SKC,0.00,VWS V13.01,2013-10-10 23:13:00,
2013-10-10 18:18:00,78.1,56.2,29.87,SE,130,0.0,8.0,47,0.00,,SKC,0.00,VWS V13.01,2013-10-10 23:18:00,
2013-10-10 18:23:00,77.7,56.5,29.87,SE,130,0.0,4.0,48,0.00,,SKC,0.00,VWS V13.01,2013-10-10 23:23:00,
2013-10-10 18:28:00,77.3,56.1,29.87,East,101,0.0,4.0,48,0.00,,SKC,0.00,VWS V13.01,2013-10-10 23:28:00,
2013-10-10 18:33:00,77.0,56.4,29.87,SSE,147,4.0,5.0,49,0.00,,SKC,0.00,VWS V13.01,2013-10-10 23:33:00,
2013-10-10 18:38:00,76.6,56.0,29.86,SSE,153,1.0,11.0,49,0.00,,SKC,0.00,VWS V13.01,2013-10-10 23:38:00,
2013-10-10 18:43:00,76.2,56.2,29.86,SSE,162,0.0,1.0,50,0.00,,SKC,0.00,VWS V13.01,2013-10-10 23:43:00,
2013-10-10 18:48:00,75.8,56.4,29.86,SW,232,3.0,6.0,51,0.00,,SKC,0.00,VWS V13.01,2013-10-10 23:48:00,
2013-10-10 18:53:00,75.5,56.1,29.86,South,175,5.0,5.0,51,0.00,,SKC,0.00,VWS V13.01,2013-10-10 23:53:00,
2013-10-10 18:58:00,75.2,56.4,29.86,ESE,106,0.0,1.0,52,0.00,,SKC,0.00,VWS V13.01,2013-10-10 23:58:00,
2013-10-10 19:03:00,74.9,56.1,29.86,ESE,109,0.0,1.0,52,0.00,,SKC,0.00,VWS V13.01,2013-10-11 00:03:00,
2013-10-10 19:08:00,74.6,56.4,29.86,SE,126,4.0,5.0,53,0.00,,SKC,0.00,VWS V13.01,2013-10-11 00:08:00,
2013-10-10 19:13:00,74.3,56.1,29.86,ESE,110,2.0,2.0,53,0.00,,SKC,0.00,VWS V13.01,2013-10-11 00:13:00,
2013-10-10 19:18:00,73.9,56.2,29.86,SE,140,0.0,0.0,54,0.00,,SKC,0.00,VWS V13.01,2013-10-11 00:18:00,
2013-10-10 19:23:00,73.7,56.0,29.86,ESE,123,0.0,0.0,54,0.00,,SKC,0.00,VWS V13.01,2013-10-11 00:23:00,
2013-10-10 19:28:00,73.4,56.3,29.86,ENE,62,0.0,2.0,55,0.00,,SKC,0.00,VWS V13.01,2013-10-11 00:28:00,
2013-10-10 19:33:00,73.2,56.1,29.86,South,175,0.0,7.0,55,0.00,,SKC,0.00,VWS V13.01,2013-10-11 00:33:00,
2013-10-10 19:38:00,72.9,56.3,29.86,SSE,149,2.0,9.0,56,0.00,,SKC,0.00,VWS V13.01,2013-10-11 00:38:00,
2013-10-10 19:43:00,72.7,56.1,29.86,SE,126,1.0,8.0,56,0.00,,SKC,0.00,VWS V13.01,2013-10-11 00:43:00,
2013-10-10 19:48:00,72.4,56.3,29.86,SSE,149,0.0,8.0,57,0.00,,SKC,0.00,VWS V13.01,2013-10-11 00:48:00,
2013-10-10 19:53:00,72.2,56.1,29.86,SE,144,2.0,6.0,57,0.00,,SKC,0.00,VWS V13.01,2013-10-11 00:53:00,
2013-10-10 19:58:00,71.9,55.9,29.86,ESE,117,0.0,11.0,57,0.00,,SKC,0.00,VWS V13.01,2013-10-11 00:58:00,
2013-10-10 20:03:00,71.8,56.2,29.86,ESE,111,0.0,6.0,58,0.00,,SKC,0.00,VWS V13.01,2013-10-11 01:03:00,
2013-10-10 20:08:00,71.6,56.1,29.86,SE,143,0.0,9.0,58,0.00,,SKC,0.00,VWS V13.01,2013-10-11 01:08:00,
2013-10-10 20:13:00,71.5,56.0,29.86,ESE,108,0.0,0.0,58,0.00,,SKC,0.00,VWS V13.01,2013-10-11 01:13:00,
2013-10-10 20:18:00,71.4,55.9,29.86,SE,143,0.0,5.0,58,0.00,,SKC,0.00,VWS V13.01,2013-10-11 01:18:00,
2013-10-10 20:23:00,71.3,56.2,29.86,East,93,0.0,6.0,59,0.00,,SKC,0.00,VWS V13.01,2013-10-11 01:23:00,
2013-10-10 20:29:00,71.2,56.2,29.86,ESE,113,0.0,13.0,59,0.00,,SKC,0.00,VWS V13.01,2013-10-11 01:29:00,
2013-10-10 20:34:00,71.0,56.0,29.86,ESE,113,0.0,7.0,59,0.00,,SKC,0.00,VWS V13.01,2013-10-11 01:34:00,
2013-10-10 20:39:00,70.8,55.8,29.86,NE,54,0.0,9.0,59,0.00,,SKC,0.00,VWS V13.01,2013-10-11 01:39:00,
2013-10-10 20:44:00,70.6,55.6,29.86,South,174,0.0,16.0,59,0.00,,SKC,0.00,VWS V13.01,2013-10-11 01:44:00,
2013-10-10 20:49:00,70.5,55.5,29.86,SE,143,0.0,6.0,59,0.00,,SKC,0.00,VWS V13.01,2013-10-11 01:49:00,
2013-10-10 20:54:00,70.3,55.8,29.86,SSW,195,0.0,8.0,60,0.00,,SKC,0.00,VWS V13.01,2013-10-11 01:54:00,
2013-10-10 20:59:00,70.1,55.6,29.86,East,91,3.0,7.0,60,0.00,,SKC,0.00,VWS V13.01,2013-10-11 01:59:00,
2013-10-10 21:04:00,70.1,55.6,29.86,ESE,120,0.0,4.0,60,0.00,,SKC,0.00,VWS V13.01,2013-10-11 02:04:00,
2013-10-10 21:09:00,69.9,55.4,29.86,NE,41,0.0,7.0,60,0.00,,SKC,0.00,VWS V13.01,2013-10-11 02:09:00,
2013-10-10 21:14:00,69.7,55.2,29.86,SE,143,0.0,8.0,60,0.00,,SKC,0.00,VWS V13.01,2013-10-11 02:14:00,
2013-10-10 21:19:00,69.5,55.5,29.86,SE,125,0.0,0.0,61,0.00,,SKC,0.00,VWS V13.01,2013-10-11 02:19:00,
2013-10-10 21:24:00,69.4,55.4,29.86,ESE,122,4.0,5.0,61,0.00,,SKC,0.00,VWS V13.01,2013-10-11 02:24:00,
2013-10-10 21:29:00,69.1,55.1,29.86,SE,138,4.0,6.0,61,0.00,,SKC,0.00,VWS V13.01,2013-10-11 02:29:00,
2013-10-10 21:34:00,68.9,54.9,29.86,SE,136,1.0,9.0,61,0.00,,SKC,0.00,VWS V13.01,2013-10-11 02:34:00,
2013-10-10 21:39:00,68.8,55.3,29.86,ESE,112,0.0,5.0,62,0.00,,SKC,0.00,VWS V13.01,2013-10-11 02:39:00,
2013-10-10 21:44:00,68.6,55.1,29.86,SE,141,2.0,7.0,62,0.00,,SKC,0.00,VWS V13.01,2013-10-11 02:44:00,
2013-10-10 21:49:00,68.5,55.0,29.86,SE,129,0.0,0.0,62,0.00,,SKC,0.00,VWS V13.01,2013-10-11 02:49:00,
2013-10-10 21:54:00,68.3,55.2,29.85,SE,129,0.0,9.0,63,0.00,,SKC,0.00,VWS V13.01,2013-10-11 02:54:00,
2013-10-10 21:59:00,68.0,55.0,29.85,East,85,0.0,7.0,63,0.00,,SKC,0.00,VWS V13.01,2013-10-11 02:59:00,
2013-10-10 22:04:00,67.7,54.7,29.85,SE,143,5.0,7.0,63,0.00,,SKC,0.00,VWS V13.01,2013-10-11 03:04:00,
2013-10-10 22:09:00,67.5,54.9,29.85,ESE,118,0.0,1.0,64,0.00,,SKC,0.00,VWS V13.01,2013-10-11 03:09:00,
2013-10-10 22:14:00,67.3,54.7,29.85,East,96,5.0,9.0,64,0.00,,SKC,0.00,VWS V13.01,2013-10-11 03:14:00,
2013-10-10 22:19:00,67.1,55.0,29.85,South,170,0.0,6.0,65,0.00,,SKC,0.00,VWS V13.01,2013-10-11 03:19:00,
2013-10-10 22:24:00,66.9,54.8,29.85,ESE,112,0.0,8.0,65,0.00,,SKC,0.00,VWS V13.01,2013-10-11 03:24:00,
2013-10-10 22:29:00,66.7,55.0,29.84,SE,143,0.0,3.0,66,0.00,,SKC,0.00,VWS V13.01,2013-10-11 03:29:00,
2013-10-10 22:34:00,66.5,54.8,29.84,ESE,122,0.0,7.0,66,0.00,,SKC,0.00,VWS V13.01,2013-10-11 03:34:00,
2013-10-10 22:39:00,66.3,54.6,29.84,SE,141,0.0,0.0,66,0.00,,SKC,0.00,VWS V13.01,2013-10-11 03:39:00,
2013-10-10 22:44:00,66.2,54.9,29.84,SE,126,0.0,11.0,67,0.00,,SKC,0.00,VWS V13.01,2013-10-11 03:44:00,
2013-10-10 22:49:00,66.3,55.0,29.84,SE,130,0.0,5.0,67,0.00,,SKC,0.00,VWS V13.01,2013-10-11 03:49:00,
2013-10-10 22:54:00,66.3,55.0,29.85,SSE,158,0.0,7.0,67,0.00,,SKC,0.00,VWS V13.01,2013-10-11 03:54:00,
2013-10-10 22:59:00,66.3,54.6,29.84,ESE,122,8.0,9.0,66,0.00,,SKC,0.00,VWS V13.01,2013-10-11 03:59:00,
2013-10-10 23:01:00,66.3,54.6,29.85,SE,133,12.0,12.0,66,0.00,,SKC,0.00,VWS V13.01,2013-10-11 04:01:00,
2013-10-10 23:03:00,66.3,54.6,29.84,ESE,111,0.0,0.0,66,0.00,,SKC,0.00,VWS V13.01,2013-10-11 04:03:00,
2013-10-10 23:04:00,66.4,54.7,29.84,SSE,150,9.0,9.0,66,0.00,,SKC,0.00,VWS V13.01,2013-10-11 04:04:00,
2013-10-10 23:07:00,66.4,54.7,29.84,ENE,64,0.0,2.0,66,0.00,,SKC,0.00,VWS V13.01,2013-10-11 04:07:00,
2013-10-10 23:09:00,66.4,54.7,29.84,ENE,73,0.0,8.0,66,0.00,,SKC,0.00,VWS V13.01,2013-10-11 04:09:00,
2013-10-10 23:12:00,66.4,54.7,29.84,ESE,107,2.0,13.0,66,0.00,,SKC,0.00,VWS V13.01,2013-10-11 04:12:00,
2013-10-10 23:17:00,66.4,54.7,29.85,SSE,158,0.0,8.0,66,0.00,,SKC,0.00,VWS V13.01,2013-10-11 04:17:00,
2013-10-10 23:22:00,66.4,54.7,29.85,SSE,160,7.0,8.0,66,0.00,,SKC,0.00,VWS V13.01,2013-10-11 04:22:00,
2013-10-10 23:27:00,66.4,54.7,29.85,SSE,158,7.0,12.0,66,0.00,,SKC,0.00,VWS V13.01,2013-10-11 04:27:00,
2013-10-10 23:32:00,66.4,54.3,29.84,SSW,197,6.0,15.0,65,0.00,,SKC,0.00,VWS V13.01,2013-10-11 04:32:00,
2013-10-10 23:37:00,66.4,54.3,29.84,East,96,5.0,17.0,65,0.00,,SKC,0.00,VWS V13.01,2013-10-11 04:37:00,
2013-10-10 23:42:00,66.5,54.4,29.84,SSW,201,1.0,4.0,65,0.00,,SKC,0.00,VWS V13.01,2013-10-11 04:42:00,
2013-10-10 23:47:00,66.3,54.2,29.84,ESE,116,7.0,11.0,65,0.00,,SKC,0.00,VWS V13.01,2013-10-11 04:47:00,
2013-10-10 23:52:00,66.3,54.2,29.84,ESE,115,1.0,12.0,65,0.00,,SKC,0.00,VWS V13.01,2013-10-11 04:52:00,
2013-10-10 23:57:00,66.1,54.4,29.85,SE,130,18.0,18.0,66,0.00,,SKC,0.00,VWS V13.01,2013-10-11 04:57:00,